sensor_id;sensor_type;location;lat;lon;timestamp;temperature;humidity
17423;DHT22;8829;47.932;7.810;2023-04-28T00:01:14;13.30;99.90
17423;DHT22;8829;47.932;7.810;2023-04-28T00:03:40;13.30;99.90
17423;DHT22;8829;47.932;7.810;2023-04-28T00:06:07;13.30;99.90
17423;DHT22;8829;47.932;7.810;2023-04-28T00:08:37;13.30;99.90
17423;DHT22;8829;47.932;7.810;2023-04-28T00:11:08;13.20;99.90
17423;DHT22;8829;47.932;7.810;2023-04-28T00:13:35;13.30;99.90
17423;DHT22;8829;47.932;7.810;2023-04-28T00:16:01;13.30;99.90
17423;DHT22;8829;47.932;7.810;2023-04-28T00:18:28;13.30;99.90
17423;DHT22;8829;47.932;7.810;2023-04-28T00:20:55;13.20;99.90
17423;DHT22;8829;47.932;7.810;2023-04-28T00:23:22;13.20;99.90
17423;DHT22;8829;47.932;7.810;2023-04-28T00:25:51;13.20;99.90
17423;DHT22;8829;47.932;7.810;2023-04-28T00:28:18;13.30;99.90
17423;DHT22;8829;47.932;7.810;2023-04-28T00:30:45;13.30;99.90
17423;DHT22;8829;47.932;7.810;2023-04-28T00:33:12;13.30;99.90
17423;DHT22;8829;47.932;7.810;2023-04-28T00:35:39;13.30;99.90
17423;DHT22;8829;47.932;7.810;2023-04-28T00:38:06;13.30;99.90
17423;DHT22;8829;47.932;7.810;2023-04-28T00:40:33;13.40;99.90
17423;DHT22;8829;47.932;7.810;2023-04-28T00:43:01;13.20;99.90
17423;DHT22;8829;47.932;7.810;2023-04-28T00:45:28;13.20;99.90
17423;DHT22;8829;47.932;7.810;2023-04-28T00:47:55;13.20;99.90
17423;DHT22;8829;47.932;7.810;2023-04-28T00:50:22;13.20;99.90
17423;DHT22;8829;47.932;7.810;2023-04-28T00:52:50;13.10;99.90
17423;DHT22;8829;47.932;7.810;2023-04-28T00:55:17;13.20;99.90
17423;DHT22;8829;47.932;7.810;2023-04-28T00:57:44;13.20;99.90
17423;DHT22;8829;47.932;7.810;2023-04-28T01:00:14;13.00;99.90
17423;DHT22;8829;47.932;7.810;2023-04-28T01:02:41;12.90;99.90
17423;DHT22;8829;47.932;7.810;2023-04-28T01:05:08;12.90;99.90
17423;DHT22;8829;47.932;7.810;2023-04-28T01:07:35;12.80;99.90
17423;DHT22;8829;47.932;7.810;2023-04-28T01:10:02;12.80;99.90
17423;DHT22;8829;47.932;7.810;2023-04-28T01:12:28;12.90;99.90
17423;DHT22;8829;47.932;7.810;2023-04-28T01:14:55;12.80;99.90
17423;DHT22;8829;47.932;7.810;2023-04-28T01:17:23;12.50;99.90
17423;DHT22;8829;47.932;7.810;2023-04-28T01:19:50;12.50;99.90
17423;DHT22;8829;47.932;7.810;2023-04-28T01:22:17;12.60;99.90
17423;DHT22;8829;47.932;7.810;2023-04-28T01:24:45;12.60;99.90
17423;DHT22;8829;47.932;7.810;2023-04-28T01:27:12;12.50;99.90
17423;DHT22;8829;47.932;7.810;2023-04-28T01:29:39;12.30;99.90
17423;DHT22;8829;47.932;7.810;2023-04-28T01:32:06;12.30;99.90
17423;DHT22;8829;47.932;7.810;2023-04-28T01:34:33;12.30;99.90
17423;DHT22;8829;47.932;7.810;2023-04-28T01:36:59;12.20;99.90
17423;DHT22;8829;47.932;7.810;2023-04-28T01:39:26;12.20;99.90
17423;DHT22;8829;47.932;7.810;2023-04-28T01:41:54;12.20;99.90
17423;DHT22;8829;47.932;7.810;2023-04-28T01:44:21;12.30;99.90
17423;DHT22;8829;47.932;7.810;2023-04-28T01:46:47;12.10;99.90
17423;DHT22;8829;47.932;7.810;2023-04-28T01:49:14;12.20;99.90
17423;DHT22;8829;47.932;7.810;2023-04-28T01:51:41;12.30;99.90
17423;DHT22;8829;47.932;7.810;2023-04-28T01:54:08;12.30;99.90
17423;DHT22;8829;47.932;7.810;2023-04-28T01:56:34;12.20;99.90
17423;DHT22;8829;47.932;7.810;2023-04-28T01:59:02;12.10;99.90
17423;DHT22;8829;47.932;7.810;2023-04-28T02:01:29;12.00;99.90
17423;DHT22;8829;47.932;7.810;2023-04-28T02:03:56;12.10;99.90
17423;DHT22;8829;47.932;7.810;2023-04-28T02:06:22;12.10;99.90
17423;DHT22;8829;47.932;7.810;2023-04-28T02:08:49;12.10;99.90
17423;DHT22;8829;47.932;7.810;2023-04-28T02:11:16;12.20;99.90
17423;DHT22;8829;47.932;7.810;2023-04-28T02:13:42;12.30;99.90
17423;DHT22;8829;47.932;7.810;2023-04-28T02:16:10;12.20;99.90
17423;DHT22;8829;47.932;7.810;2023-04-28T02:18:37;12.20;99.90
17423;DHT22;8829;47.932;7.810;2023-04-28T02:21:08;12.20;99.90
17423;DHT22;8829;47.932;7.810;2023-04-28T02:23:35;12.30;99.90
17423;DHT22;8829;47.932;7.810;2023-04-28T02:26:02;12.40;99.90
17423;DHT22;8829;47.932;7.810;2023-04-28T02:28:29;12.40;99.90
17423;DHT22;8829;47.932;7.810;2023-04-28T02:31:03;12.50;99.90
17423;DHT22;8829;47.932;7.810;2023-04-28T02:33:31;12.50;99.90
17423;DHT22;8829;47.932;7.810;2023-04-28T02:35:58;12.40;99.90
17423;DHT22;8829;47.932;7.810;2023-04-28T02:38:25;12.40;99.90
17423;DHT22;8829;47.932;7.810;2023-04-28T02:40:56;12.50;99.90
17423;DHT22;8829;47.932;7.810;2023-04-28T02:43:23;12.50;99.90
17423;DHT22;8829;47.932;7.810;2023-04-28T02:45:50;12.60;99.90
17423;DHT22;8829;47.932;7.810;2023-04-28T02:48:17;12.60;99.90
17423;DHT22;8829;47.932;7.810;2023-04-28T02:50:44;12.60;99.90
17423;DHT22;8829;47.932;7.810;2023-04-28T02:53:11;12.70;99.90
17423;DHT22;8829;47.932;7.810;2023-04-28T02:55:38;12.70;99.90
17423;DHT22;8829;47.932;7.810;2023-04-28T02:58:04;12.70;99.90
17423;DHT22;8829;47.932;7.810;2023-04-28T03:00:31;12.60;99.90
17423;DHT22;8829;47.932;7.810;2023-04-28T03:02:58;12.70;99.90
17423;DHT22;8829;47.932;7.810;2023-04-28T03:05:24;12.90;99.90
17423;DHT22;8829;47.932;7.810;2023-04-28T03:07:54;12.90;99.90
17423;DHT22;8829;47.932;7.810;2023-04-28T03:10:20;13.10;99.90
17423;DHT22;8829;47.932;7.810;2023-04-28T03:12:47;13.10;99.90
17423;DHT22;8829;47.932;7.810;2023-04-28T03:15:14;12.70;99.90
17423;DHT22;8829;47.932;7.810;2023-04-28T03:17:41;12.50;99.90
17423;DHT22;8829;47.932;7.810;2023-04-28T03:20:09;12.50;99.90
17423;DHT22;8829;47.932;7.810;2023-04-28T03:22:36;12.40;99.90
17423;DHT22;8829;47.932;7.810;2023-04-28T03:25:04;12.30;99.90
17423;DHT22;8829;47.932;7.810;2023-04-28T03:27:31;12.40;99.90
17423;DHT22;8829;47.932;7.810;2023-04-28T03:29:58;12.50;99.90
17423;DHT22;8829;47.932;7.810;2023-04-28T03:32:24;12.60;99.90
17423;DHT22;8829;47.932;7.810;2023-04-28T03:34:51;12.70;99.90
17423;DHT22;8829;47.932;7.810;2023-04-28T03:37:17;12.70;99.90
17423;DHT22;8829;47.932;7.810;2023-04-28T03:39:44;12.70;99.90
17423;DHT22;8829;47.932;7.810;2023-04-28T03:42:12;12.70;99.90
17423;DHT22;8829;47.932;7.810;2023-04-28T03:44:39;12.70;99.90
17423;DHT22;8829;47.932;7.810;2023-04-28T03:47:05;12.80;99.90
17423;DHT22;8829;47.932;7.810;2023-04-28T03:49:32;12.90;99.90
17423;DHT22;8829;47.932;7.810;2023-04-28T03:51:59;12.90;99.90
17423;DHT22;8829;47.932;7.810;2023-04-28T03:54:26;13.00;99.90
17423;DHT22;8829;47.932;7.810;2023-04-28T03:56:52;13.10;99.90
17423;DHT22;8829;47.932;7.810;2023-04-28T03:59:20;13.10;99.90
17423;DHT22;8829;47.932;7.810;2023-04-28T04:01:47;13.20;99.90
17423;DHT22;8829;47.932;7.810;2023-04-28T04:04:13;13.20;99.90
17423;DHT22;8829;47.932;7.810;2023-04-28T04:06:40;13.30;99.90
17423;DHT22;8829;47.932;7.810;2023-04-28T04:09:07;13.30;99.90
17423;DHT22;8829;47.932;7.810;2023-04-28T04:11:34;13.30;99.90
17423;DHT22;8829;47.932;7.810;2023-04-28T04:14:00;13.30;99.90
17423;DHT22;8829;47.932;7.810;2023-04-28T04:16:29;13.30;99.90
17423;DHT22;8829;47.932;7.810;2023-04-28T04:18:56;13.30;99.90
17423;DHT22;8829;47.932;7.810;2023-04-28T04:21:22;13.30;99.90
17423;DHT22;8829;47.932;7.810;2023-04-28T04:23:49;13.40;99.90
17423;DHT22;8829;47.932;7.810;2023-04-28T04:26:16;13.30;99.90
17423;DHT22;8829;47.932;7.810;2023-04-28T04:28:42;13.30;99.90
17423;DHT22;8829;47.932;7.810;2023-04-28T04:31:09;13.40;99.90
17423;DHT22;8829;47.932;7.810;2023-04-28T04:33:38;13.40;99.90
17423;DHT22;8829;47.932;7.810;2023-04-28T04:36:05;13.40;99.90
17423;DHT22;8829;47.932;7.810;2023-04-28T04:38:32;13.40;99.90
17423;DHT22;8829;47.932;7.810;2023-04-28T04:40:59;13.40;99.90
17423;DHT22;8829;47.932;7.810;2023-04-28T04:43:25;13.40;99.90
17423;DHT22;8829;47.932;7.810;2023-04-28T04:45:52;13.40;99.90
17423;DHT22;8829;47.932;7.810;2023-04-28T04:48:19;13.40;99.90
17423;DHT22;8829;47.932;7.810;2023-04-28T04:50:47;13.40;99.90
17423;DHT22;8829;47.932;7.810;2023-04-28T04:53:14;13.30;99.90
17423;DHT22;8829;47.932;7.810;2023-04-28T04:55:41;13.40;99.90
17423;DHT22;8829;47.932;7.810;2023-04-28T04:58:08;13.40;99.90
17423;DHT22;8829;47.932;7.810;2023-04-28T05:00:35;13.30;99.90
17423;DHT22;8829;47.932;7.810;2023-04-28T05:03:02;13.30;99.90
17423;DHT22;8829;47.932;7.810;2023-04-28T05:05:30;13.30;99.90
17423;DHT22;8829;47.932;7.810;2023-04-28T05:07:58;13.30;99.90
17423;DHT22;8829;47.932;7.810;2023-04-28T05:10:26;13.40;99.90
17423;DHT22;8829;47.932;7.810;2023-04-28T05:12:53;13.30;99.90
17423;DHT22;8829;47.932;7.810;2023-04-28T05:15:20;13.30;99.90
17423;DHT22;8829;47.932;7.810;2023-04-28T05:17:46;13.30;99.90
17423;DHT22;8829;47.932;7.810;2023-04-28T05:20:14;13.50;99.90
17423;DHT22;8829;47.932;7.810;2023-04-28T05:22:40;13.40;99.90
17423;DHT22;8829;47.932;7.810;2023-04-28T05:25:09;13.40;99.90
17423;DHT22;8829;47.932;7.810;2023-04-28T05:27:35;13.40;99.90
17423;DHT22;8829;47.932;7.810;2023-04-28T05:30:04;13.40;99.90
17423;DHT22;8829;47.932;7.810;2023-04-28T05:32:33;13.40;99.90
17423;DHT22;8829;47.932;7.810;2023-04-28T05:35:00;13.40;99.90
17423;DHT22;8829;47.932;7.810;2023-04-28T05:37:26;13.50;99.90
17423;DHT22;8829;47.932;7.810;2023-04-28T05:39:53;13.40;99.90
17423;DHT22;8829;47.932;7.810;2023-04-28T05:42:21;13.40;99.90
17423;DHT22;8829;47.932;7.810;2023-04-28T05:44:48;13.40;99.90
17423;DHT22;8829;47.932;7.810;2023-04-28T05:47:14;13.40;99.90
17423;DHT22;8829;47.932;7.810;2023-04-28T05:49:41;13.40;99.90
17423;DHT22;8829;47.932;7.810;2023-04-28T05:52:08;13.30;99.90
17423;DHT22;8829;47.932;7.810;2023-04-28T05:54:34;13.40;99.90
17423;DHT22;8829;47.932;7.810;2023-04-28T05:57:01;13.40;99.90
17423;DHT22;8829;47.932;7.810;2023-04-28T05:59:29;13.40;99.90
17423;DHT22;8829;47.932;7.810;2023-04-28T06:01:56;13.40;99.90
17423;DHT22;8829;47.932;7.810;2023-04-28T06:04:23;13.40;99.90
17423;DHT22;8829;47.932;7.810;2023-04-28T06:06:50;13.50;99.90
17423;DHT22;8829;47.932;7.810;2023-04-28T06:09:17;13.50;99.90
17423;DHT22;8829;47.932;7.810;2023-04-28T06:11:43;13.50;99.90
17423;DHT22;8829;47.932;7.810;2023-04-28T06:14:10;13.40;99.90
17423;DHT22;8829;47.932;7.810;2023-04-28T06:16:38;13.40;99.90
17423;DHT22;8829;47.932;7.810;2023-04-28T06:19:05;13.50;99.90
17423;DHT22;8829;47.932;7.810;2023-04-28T06:21:31;13.50;99.90
17423;DHT22;8829;47.932;7.810;2023-04-28T06:23:58;13.50;99.90
17423;DHT22;8829;47.932;7.810;2023-04-28T06:26:26;13.50;99.90
17423;DHT22;8829;47.932;7.810;2023-04-28T06:28:52;13.40;99.90
17423;DHT22;8829;47.932;7.810;2023-04-28T06:31:19;13.40;99.90
17423;DHT22;8829;47.932;7.810;2023-04-28T06:33:47;13.40;99.90
17423;DHT22;8829;47.932;7.810;2023-04-28T06:36:14;13.10;99.90
17423;DHT22;8829;47.932;7.810;2023-04-28T06:38:42;13.30;99.90
17423;DHT22;8829;47.932;7.810;2023-04-28T06:41:09;13.30;99.90
17423;DHT22;8829;47.932;7.810;2023-04-28T06:43:35;13.20;99.90
17423;DHT22;8829;47.932;7.810;2023-04-28T06:46:02;13.20;99.90
17423;DHT22;8829;47.932;7.810;2023-04-28T06:48:29;13.20;99.90
17423;DHT22;8829;47.932;7.810;2023-04-28T06:50:57;13.30;99.90
17423;DHT22;8829;47.932;7.810;2023-04-28T06:53:24;13.20;99.90
17423;DHT22;8829;47.932;7.810;2023-04-28T06:55:51;13.10;99.90
17423;DHT22;8829;47.932;7.810;2023-04-28T06:58:18;13.10;99.90
17423;DHT22;8829;47.932;7.810;2023-04-28T07:00:45;13.20;99.90
17423;DHT22;8829;47.932;7.810;2023-04-28T07:03:11;13.20;99.90
17423;DHT22;8829;47.932;7.810;2023-04-28T07:05:38;13.10;99.90
17423;DHT22;8829;47.932;7.810;2023-04-28T07:08:06;13.10;99.90
17423;DHT22;8829;47.932;7.810;2023-04-28T07:10:33;13.10;99.90
17423;DHT22;8829;47.932;7.810;2023-04-28T07:12:59;13.20;99.90
17423;DHT22;8829;47.932;7.810;2023-04-28T07:15:27;13.20;99.90
17423;DHT22;8829;47.932;7.810;2023-04-28T07:17:54;13.10;99.90
17423;DHT22;8829;47.932;7.810;2023-04-28T07:20:20;13.10;99.90
17423;DHT22;8829;47.932;7.810;2023-04-28T07:22:47;13.20;99.90
17423;DHT22;8829;47.932;7.810;2023-04-28T07:25:15;13.20;99.90
17423;DHT22;8829;47.932;7.810;2023-04-28T07:27:42;13.20;99.90
17423;DHT22;8829;47.932;7.810;2023-04-28T07:30:09;13.20;99.90
17423;DHT22;8829;47.932;7.810;2023-04-28T07:32:36;13.30;99.90
17423;DHT22;8829;47.932;7.810;2023-04-28T07:35:03;13.30;99.90
17423;DHT22;8829;47.932;7.810;2023-04-28T07:37:30;13.40;99.90
17423;DHT22;8829;47.932;7.810;2023-04-28T07:39:56;13.50;99.90
17423;DHT22;8829;47.932;7.810;2023-04-28T07:42:24;13.60;99.90
17423;DHT22;8829;47.932;7.810;2023-04-28T07:44:51;13.60;99.90
17423;DHT22;8829;47.932;7.810;2023-04-28T07:47:18;13.60;99.90
17423;DHT22;8829;47.932;7.810;2023-04-28T07:49:45;13.60;99.90
17423;DHT22;8829;47.932;7.810;2023-04-28T07:52:11;13.60;99.90
17423;DHT22;8829;47.932;7.810;2023-04-28T07:54:38;13.70;99.90
17423;DHT22;8829;47.932;7.810;2023-04-28T07:57:05;13.70;99.90
17423;DHT22;8829;47.932;7.810;2023-04-28T07:59:33;13.70;99.90
17423;DHT22;8829;47.932;7.810;2023-04-28T08:02:00;13.80;99.90
17423;DHT22;8829;47.932;7.810;2023-04-28T08:04:27;13.70;99.90
17423;DHT22;8829;47.932;7.810;2023-04-28T08:06:55;13.70;99.90
17423;DHT22;8829;47.932;7.810;2023-04-28T08:09:23;13.80;99.90
17423;DHT22;8829;47.932;7.810;2023-04-28T08:11:49;13.80;99.90
17423;DHT22;8829;47.932;7.810;2023-04-28T08:14:16;13.80;99.90
17423;DHT22;8829;47.932;7.810;2023-04-28T08:16:44;13.80;99.90
17423;DHT22;8829;47.932;7.810;2023-04-28T08:19:11;13.80;99.90
17423;DHT22;8829;47.932;7.810;2023-04-28T08:21:38;13.80;99.90
17423;DHT22;8829;47.932;7.810;2023-04-28T08:24:05;13.90;99.90
17423;DHT22;8829;47.932;7.810;2023-04-28T08:26:32;14.00;99.90
17423;DHT22;8829;47.932;7.810;2023-04-28T08:28:59;14.00;99.90
17423;DHT22;8829;47.932;7.810;2023-04-28T08:31:26;14.00;99.90
17423;DHT22;8829;47.932;7.810;2023-04-28T08:33:54;13.90;99.90
17423;DHT22;8829;47.932;7.810;2023-04-28T08:36:21;14.00;99.90
17423;DHT22;8829;47.932;7.810;2023-04-28T08:38:49;13.90;99.90
17423;DHT22;8829;47.932;7.810;2023-04-28T08:41:16;13.90;99.90
17423;DHT22;8829;47.932;7.810;2023-04-28T08:43:44;13.80;99.90
17423;DHT22;8829;47.932;7.810;2023-04-28T08:46:10;13.70;99.90
17423;DHT22;8829;47.932;7.810;2023-04-28T08:48:40;13.70;99.90
17423;DHT22;8829;47.932;7.810;2023-04-28T08:51:14;13.70;99.90
17423;DHT22;8829;47.932;7.810;2023-04-28T08:53:44;13.80;99.90
17423;DHT22;8829;47.932;7.810;2023-04-28T08:56:15;13.80;99.90
17423;DHT22;8829;47.932;7.810;2023-04-28T08:58:43;13.90;99.90
17423;DHT22;8829;47.932;7.810;2023-04-28T09:01:09;13.90;99.90
17423;DHT22;8829;47.932;7.810;2023-04-28T09:03:36;13.90;99.90
17423;DHT22;8829;47.932;7.810;2023-04-28T09:06:03;13.90;99.90
17423;DHT22;8829;47.932;7.810;2023-04-28T09:08:31;14.10;99.90
17423;DHT22;8829;47.932;7.810;2023-04-28T09:11:05;14.30;99.90
17423;DHT22;8829;47.932;7.810;2023-04-28T09:13:33;14.50;99.90
17423;DHT22;8829;47.932;7.810;2023-04-28T09:16:00;14.60;99.90
17423;DHT22;8829;47.932;7.810;2023-04-28T09:18:27;14.70;99.90
17423;DHT22;8829;47.932;7.810;2023-04-28T09:21:02;14.70;99.90
17423;DHT22;8829;47.932;7.810;2023-04-28T09:23:31;14.60;99.90
17423;DHT22;8829;47.932;7.810;2023-04-28T09:26:00;14.60;99.90
17423;DHT22;8829;47.932;7.810;2023-04-28T09:28:27;14.60;99.90
17423;DHT22;8829;47.932;7.810;2023-04-28T09:30:53;14.60;99.90
17423;DHT22;8829;47.932;7.810;2023-04-28T09:33:20;14.60;99.90
17423;DHT22;8829;47.932;7.810;2023-04-28T09:35:47;14.60;99.90
17423;DHT22;8829;47.932;7.810;2023-04-28T09:38:14;14.60;99.90
17423;DHT22;8829;47.932;7.810;2023-04-28T09:40:56;14.60;99.90
17423;DHT22;8829;47.932;7.810;2023-04-28T09:43:27;14.50;99.90
17423;DHT22;8829;47.932;7.810;2023-04-28T09:45:55;14.60;99.90
17423;DHT22;8829;47.932;7.810;2023-04-28T09:48:30;14.40;99.90
17423;DHT22;8829;47.932;7.810;2023-04-28T09:50:57;14.40;99.90
17423;DHT22;8829;47.932;7.810;2023-04-28T09:53:25;14.50;99.90
17423;DHT22;8829;47.932;7.810;2023-04-28T09:55:54;14.50;99.90
17423;DHT22;8829;47.932;7.810;2023-04-28T09:58:22;14.70;99.90
17423;DHT22;8829;47.932;7.810;2023-04-28T10:00:52;14.90;99.90
17423;DHT22;8829;47.932;7.810;2023-04-28T10:03:23;15.10;99.90
17423;DHT22;8829;47.932;7.810;2023-04-28T10:05:51;15.30;99.90
17423;DHT22;8829;47.932;7.810;2023-04-28T10:08:19;15.50;99.90
17423;DHT22;8829;47.932;7.810;2023-04-28T10:10:47;15.40;99.90
17423;DHT22;8829;47.932;7.810;2023-04-28T10:13:16;15.40;99.90
17423;DHT22;8829;47.932;7.810;2023-04-28T10:15:44;15.40;99.90
17423;DHT22;8829;47.932;7.810;2023-04-28T10:18:11;15.50;99.90
17423;DHT22;8829;47.932;7.810;2023-04-28T10:20:39;15.30;99.90
17423;DHT22;8829;47.932;7.810;2023-04-28T10:23:22;15.30;99.90
17423;DHT22;8829;47.932;7.810;2023-04-28T10:25:55;15.30;99.90
17423;DHT22;8829;47.932;7.810;2023-04-28T10:28:26;15.20;99.90
17423;DHT22;8829;47.932;7.810;2023-04-28T10:31:09;15.20;99.90
17423;DHT22;8829;47.932;7.810;2023-04-28T10:33:36;15.40;99.90
17423;DHT22;8829;47.932;7.810;2023-04-28T10:36:04;15.40;99.90
17423;DHT22;8829;47.932;7.810;2023-04-28T10:38:32;15.50;99.90
17423;DHT22;8829;47.932;7.810;2023-04-28T10:40:59;15.60;99.90
17423;DHT22;8829;47.932;7.810;2023-04-28T10:43:36;15.50;99.90
17423;DHT22;8829;47.932;7.810;2023-04-28T10:46:08;15.50;99.90
17423;DHT22;8829;47.932;7.810;2023-04-28T10:48:54;15.60;99.90
17423;DHT22;8829;47.932;7.810;2023-04-28T10:51:28;15.70;99.90
17423;DHT22;8829;47.932;7.810;2023-04-28T10:54:09;16.10;99.90
17423;DHT22;8829;47.932;7.810;2023-04-28T10:56:36;16.50;99.90
17423;DHT22;8829;47.932;7.810;2023-04-28T10:59:24;16.80;99.90
17423;DHT22;8829;47.932;7.810;2023-04-28T11:01:51;17.00;99.90
17423;DHT22;8829;47.932;7.810;2023-04-28T11:04:18;17.20;99.90
17423;DHT22;8829;47.932;7.810;2023-04-28T11:06:46;17.40;99.90
17423;DHT22;8829;47.932;7.810;2023-04-28T11:09:48;17.50;99.90
17423;DHT22;8829;47.932;7.810;2023-04-28T11:12:16;17.70;99.90
17423;DHT22;8829;47.932;7.810;2023-04-28T11:14:44;17.70;99.90
17423;DHT22;8829;47.932;7.810;2023-04-28T11:17:11;17.90;99.90
17423;DHT22;8829;47.932;7.810;2023-04-28T11:19:42;17.90;99.90
17423;DHT22;8829;47.932;7.810;2023-04-28T11:22:13;18.00;99.90
17423;DHT22;8829;47.932;7.810;2023-04-28T11:24:40;17.80;99.90
17423;DHT22;8829;47.932;7.810;2023-04-28T11:27:07;17.80;99.90
17423;DHT22;8829;47.932;7.810;2023-04-28T11:29:35;17.70;99.90
17423;DHT22;8829;47.932;7.810;2023-04-28T11:32:04;17.80;99.90
17423;DHT22;8829;47.932;7.810;2023-04-28T11:34:31;18.00;99.90
17423;DHT22;8829;47.932;7.810;2023-04-28T11:36:59;18.10;99.90
17423;DHT22;8829;47.932;7.810;2023-04-28T11:39:26;18.30;99.90
17423;DHT22;8829;47.932;7.810;2023-04-28T11:41:54;18.20;99.90
17423;DHT22;8829;47.932;7.810;2023-04-28T11:44:24;18.40;99.90
17423;DHT22;8829;47.932;7.810;2023-04-28T11:46:53;18.50;99.90
17423;DHT22;8829;47.932;7.810;2023-04-28T11:49:22;18.20;99.90
17423;DHT22;8829;47.932;7.810;2023-04-28T11:51:50;18.10;99.90
17423;DHT22;8829;47.932;7.810;2023-04-28T11:54:20;18.00;99.90
17423;DHT22;8829;47.932;7.810;2023-04-28T11:56:47;17.90;99.90
17423;DHT22;8829;47.932;7.810;2023-04-28T11:59:14;18.00;99.90
17423;DHT22;8829;47.932;7.810;2023-04-28T12:01:46;18.20;99.90
17423;DHT22;8829;47.932;7.810;2023-04-28T12:04:13;18.30;99.90
17423;DHT22;8829;47.932;7.810;2023-04-28T12:06:41;18.40;99.90
17423;DHT22;8829;47.932;7.810;2023-04-28T12:09:15;18.50;99.90
17423;DHT22;8829;47.932;7.810;2023-04-28T12:11:52;18.50;99.90
17423;DHT22;8829;47.932;7.810;2023-04-28T12:14:19;18.30;99.90
17423;DHT22;8829;47.932;7.810;2023-04-28T12:16:46;18.20;99.90
17423;DHT22;8829;47.932;7.810;2023-04-28T12:19:14;18.20;99.90
17423;DHT22;8829;47.932;7.810;2023-04-28T12:21:42;18.10;99.90
17423;DHT22;8829;47.932;7.810;2023-04-28T12:24:14;18.10;99.90
17423;DHT22;8829;47.932;7.810;2023-04-28T12:26:41;18.30;99.90
17423;DHT22;8829;47.932;7.810;2023-04-28T12:29:08;18.40;99.90
17423;DHT22;8829;47.932;7.810;2023-04-28T12:31:47;18.40;99.90
17423;DHT22;8829;47.932;7.810;2023-04-28T12:34:14;18.50;99.90
17423;DHT22;8829;47.932;7.810;2023-04-28T12:36:42;18.60;99.90
17423;DHT22;8829;47.932;7.810;2023-04-28T12:39:12;18.50;99.90
17423;DHT22;8829;47.932;7.810;2023-04-28T12:41:40;18.40;99.90
17423;DHT22;8829;47.932;7.810;2023-04-28T12:44:07;18.30;99.90
17423;DHT22;8829;47.932;7.810;2023-04-28T12:46:34;18.50;99.90
17423;DHT22;8829;47.932;7.810;2023-04-28T12:49:01;18.60;99.90
17423;DHT22;8829;47.932;7.810;2023-04-28T12:51:28;18.80;99.90
17423;DHT22;8829;47.932;7.810;2023-04-28T12:53:56;18.80;99.90
17423;DHT22;8829;47.932;7.810;2023-04-28T12:56:23;18.90;99.90
17423;DHT22;8829;47.932;7.810;2023-04-28T12:58:49;18.90;99.90
17423;DHT22;8829;47.932;7.810;2023-04-28T13:01:16;18.90;99.90
17423;DHT22;8829;47.932;7.810;2023-04-28T13:03:43;18.90;99.90
17423;DHT22;8829;47.932;7.810;2023-04-28T13:06:11;19.00;99.90
17423;DHT22;8829;47.932;7.810;2023-04-28T13:08:38;19.00;99.90
17423;DHT22;8829;47.932;7.810;2023-04-28T13:11:06;18.80;99.90
17423;DHT22;8829;47.932;7.810;2023-04-28T13:13:35;19.00;99.90
17423;DHT22;8829;47.932;7.810;2023-04-28T13:16:02;19.00;99.90
17423;DHT22;8829;47.932;7.810;2023-04-28T13:18:29;18.90;99.90
17423;DHT22;8829;47.932;7.810;2023-04-28T13:20:55;18.90;99.90
17423;DHT22;8829;47.932;7.810;2023-04-28T13:23:22;19.20;99.90
17423;DHT22;8829;47.932;7.810;2023-04-28T13:25:49;19.20;99.90
17423;DHT22;8829;47.932;7.810;2023-04-28T13:28:17;19.20;99.90
17423;DHT22;8829;47.932;7.810;2023-04-28T13:30:44;19.20;99.90
17423;DHT22;8829;47.932;7.810;2023-04-28T13:33:11;19.30;99.90
17423;DHT22;8829;47.932;7.810;2023-04-28T13:35:37;19.50;99.90
17423;DHT22;8829;47.932;7.810;2023-04-28T13:38:04;19.50;99.90
17423;DHT22;8829;47.932;7.810;2023-04-28T13:40:31;19.40;99.90
17423;DHT22;8829;47.932;7.810;2023-04-28T13:42:59;19.50;99.90
17423;DHT22;8829;47.932;7.810;2023-04-28T13:45:27;19.70;99.90
17423;DHT22;8829;47.932;7.810;2023-04-28T13:47:54;19.80;99.90
17423;DHT22;8829;47.932;7.810;2023-04-28T13:50:21;19.70;99.90
17423;DHT22;8829;47.932;7.810;2023-04-28T13:52:47;19.60;99.90
17423;DHT22;8829;47.932;7.810;2023-04-28T13:55:14;19.50;99.90
17423;DHT22;8829;47.932;7.810;2023-04-28T13:57:41;19.50;99.90
17423;DHT22;8829;47.932;7.810;2023-04-28T14:00:09;19.50;99.90
17423;DHT22;8829;47.932;7.810;2023-04-28T14:02:37;19.60;99.90
17423;DHT22;8829;47.932;7.810;2023-04-28T14:05:05;19.70;99.90
17423;DHT22;8829;47.932;7.810;2023-04-28T14:07:32;19.80;99.90
17423;DHT22;8829;47.932;7.810;2023-04-28T14:09:59;19.90;99.90
17423;DHT22;8829;47.932;7.810;2023-04-28T14:12:25;20.00;99.90
17423;DHT22;8829;47.932;7.810;2023-04-28T14:14:52;19.90;99.90
17423;DHT22;8829;47.932;7.810;2023-04-28T14:17:19;19.90;99.90
17423;DHT22;8829;47.932;7.810;2023-04-28T14:19:47;19.90;99.90
17423;DHT22;8829;47.932;7.810;2023-04-28T14:22:14;19.70;99.90
17423;DHT22;8829;47.932;7.810;2023-04-28T14:24:41;19.60;99.90
17423;DHT22;8829;47.932;7.810;2023-04-28T14:27:07;19.50;99.90
17423;DHT22;8829;47.932;7.810;2023-04-28T14:29:34;19.60;99.90
17423;DHT22;8829;47.932;7.810;2023-04-28T14:32:01;19.50;99.90
17423;DHT22;8829;47.932;7.810;2023-04-28T14:34:27;19.30;99.90
17423;DHT22;8829;47.932;7.810;2023-04-28T14:36:56;19.40;99.90
17423;DHT22;8829;47.932;7.810;2023-04-28T14:39:22;19.30;99.90
17423;DHT22;8829;47.932;7.810;2023-04-28T14:41:49;19.20;99.90
17423;DHT22;8829;47.932;7.810;2023-04-28T14:44:16;19.10;99.90
17423;DHT22;8829;47.932;7.810;2023-04-28T14:46:43;19.10;99.90
17423;DHT22;8829;47.932;7.810;2023-04-28T14:49:10;18.90;99.90
17423;DHT22;8829;47.932;7.810;2023-04-28T14:51:36;18.90;99.90
17423;DHT22;8829;47.932;7.810;2023-04-28T14:54:04;19.00;99.90
17423;DHT22;8829;47.932;7.810;2023-04-28T14:56:33;19.00;99.90
17423;DHT22;8829;47.932;7.810;2023-04-28T14:59:00;19.10;99.90
17423;DHT22;8829;47.932;7.810;2023-04-28T15:01:27;19.10;99.90
17423;DHT22;8829;47.932;7.810;2023-04-28T15:03:53;18.90;99.90
17423;DHT22;8829;47.932;7.810;2023-04-28T15:06:20;19.10;99.90
17423;DHT22;8829;47.932;7.810;2023-04-28T15:08:47;19.20;99.90
17423;DHT22;8829;47.932;7.810;2023-04-28T15:11:15;19.30;99.90
17423;DHT22;8829;47.932;7.810;2023-04-28T15:13:41;19.30;99.90
17423;DHT22;8829;47.932;7.810;2023-04-28T15:16:08;19.20;99.90
17423;DHT22;8829;47.932;7.810;2023-04-28T15:18:35;19.10;99.90
17423;DHT22;8829;47.932;7.810;2023-04-28T15:21:02;19.00;99.90
17423;DHT22;8829;47.932;7.810;2023-04-28T15:23:29;18.80;99.90
17423;DHT22;8829;47.932;7.810;2023-04-28T15:25:55;18.70;99.90
17423;DHT22;8829;47.932;7.810;2023-04-28T15:28:23;18.50;99.90
17423;DHT22;8829;47.932;7.810;2023-04-28T15:30:51;18.40;99.90
17423;DHT22;8829;47.932;7.810;2023-04-28T15:33:18;18.30;99.90
17423;DHT22;8829;47.932;7.810;2023-04-28T15:35:45;18.30;99.90
17423;DHT22;8829;47.932;7.810;2023-04-28T15:38:12;18.30;99.90
17423;DHT22;8829;47.932;7.810;2023-04-28T15:40:39;18.30;99.90
17423;DHT22;8829;47.932;7.810;2023-04-28T15:43:06;18.30;99.90
17423;DHT22;8829;47.932;7.810;2023-04-28T15:45:34;18.20;99.90
17423;DHT22;8829;47.932;7.810;2023-04-28T15:48:02;18.20;99.90